sensor_id;sensor_type;location;lat;lon;timestamp;pressure;altitude;pressure_sealevel;temperature;humidity
5872;BME280;2962;51.312;7.378;2023-02-12T00:00:06;99517.47;;;5.41;100.00
5872;BME280;2962;51.312;7.378;2023-02-12T00:02:32;99518.28;;;5.41;100.00
5872;BME280;2962;51.312;7.378;2023-02-12T00:04:57;99517.78;;;5.39;100.00
5872;BME280;2962;51.312;7.378;2023-02-12T00:07:23;99515.06;;;5.39;100.00
5872;BME280;2962;51.312;7.378;2023-02-12T00:09:48;99523.81;;;5.26;100.00
5872;BME280;2962;51.312;7.378;2023-02-12T00:12:13;99512.75;;;5.22;100.00
5872;BME280;2962;51.312;7.378;2023-02-12T00:14:39;99512.31;;;5.44;100.00
5872;BME280;2962;51.312;7.378;2023-02-12T00:17:04;99501.19;;;5.51;100.00
5872;BME280;2962;51.312;7.378;2023-02-12T00:19:29;99503.88;;;5.51;100.00
5872;BME280;2962;51.312;7.378;2023-02-12T00:21:55;99509.84;;;5.48;100.00
5872;BME280;2962;51.312;7.378;2023-02-12T00:24:20;99507.38;;;5.51;100.00
5872;BME280;2962;51.312;7.378;2023-02-12T00:26:45;99507.94;;;5.48;100.00
5872;BME280;2962;51.312;7.378;2023-02-12T00:29:12;99500.69;;;5.44;100.00
5872;BME280;2962;51.312;7.378;2023-02-12T00:31:38;99495.34;;;5.38;100.00
5872;BME280;2962;51.312;7.378;2023-02-12T00:34:03;99504.44;;;5.48;100.00
5872;BME280;2962;51.312;7.378;2023-02-12T00:36:29;99497.19;;;5.43;100.00
5872;BME280;2962;51.312;7.378;2023-02-12T00:38:56;99507.38;;;5.51;100.00
5872;BME280;2962;51.312;7.378;2023-02-12T00:41:22;99501.97;;;5.51;100.00
5872;BME280;2962;51.312;7.378;2023-02-12T00:43:48;99494.16;;;5.50;100.00
5872;BME280;2962;51.312;7.378;2023-02-12T00:46:14;99504.16;;;5.49;100.00
5872;BME280;2962;51.312;7.378;2023-02-12T00:48:39;99496.09;;;5.44;100.00
5872;BME280;2962;51.312;7.378;2023-02-12T00:51:05;99500.41;;;5.45;100.00
5872;BME280;2962;51.312;7.378;2023-02-12T00:53:31;99498.59;;;5.35;100.00
5872;BME280;2962;51.312;7.378;2023-02-12T00:55:56;99495.34;;;5.38;100.00
5872;BME280;2962;51.312;7.378;2023-02-12T00:58:22;99505.31;;;5.38;100.00
5872;BME280;2962;51.312;7.378;2023-02-12T01:00:47;99512.56;;;5.48;100.00
5872;BME280;2962;51.312;7.378;2023-02-12T01:03:13;99510.91;;;5.52;100.00
5872;BME280;2962;51.312;7.378;2023-02-12T01:05:39;99509.31;;;5.46;100.00
5872;BME280;2962;51.312;7.378;2023-02-12T01:08:04;99516.34;;;5.47;100.00
5872;BME280;2962;51.312;7.378;2023-02-12T01:10:30;99510.72;;;5.43;100.00
5872;BME280;2962;51.312;7.378;2023-02-12T01:12:55;99516.69;;;5.40;100.00
5872;BME280;2962;51.312;7.378;2023-02-12T01:15:21;99515.78;;;5.50;100.00
5872;BME280;2962;51.312;7.378;2023-02-12T01:17:47;99512.25;;;5.49;100.00
5872;BME280;2962;51.312;7.378;2023-02-12T01:20:15;99519.78;;;5.57;100.00
5872;BME280;2962;51.312;7.378;2023-02-12T01:22:44;99515.69;;;5.60;100.00
5872;BME280;2962;51.312;7.378;2023-02-12T01:25:09;99514.72;;;5.46;100.00
5872;BME280;2962;51.312;7.378;2023-02-12T01:27:35;99510.94;;;5.47;100.00
5872;BME280;2962;51.312;7.378;2023-02-12T01:30:00;99508.72;;;5.54;100.00
5872;BME280;2962;51.312;7.378;2023-02-12T01:32:26;99511.66;;;5.57;100.00
5872;BME280;2962;51.312;7.378;2023-02-12T01:34:51;99506.25;;;5.57;100.00
5872;BME280;2962;51.312;7.378;2023-02-12T01:37:16;99510.34;;;5.55;100.00
5872;BME280;2962;51.312;7.378;2023-02-12T01:39:42;99509.91;;;5.43;100.00
5872;BME280;2962;51.312;7.378;2023-02-12T01:42:11;99510.34;;;5.55;100.00
5872;BME280;2962;51.312;7.378;2023-02-12T01:44:42;99507.56;;;5.60;100.00
5872;BME280;2962;51.312;7.378;2023-02-12T01:47:15;99505.16;;;5.58;100.00
5872;BME280;2962;51.312;7.378;2023-02-12T01:49:43;99498.41;;;5.56;100.00
5872;BME280;2962;51.312;7.378;2023-02-12T01:52:17;99505.44;;;5.57;100.00
5872;BME280;2962;51.312;7.378;2023-02-12T01:54:49;99485.53;;;5.48;100.00
5872;BME280;2962;51.312;7.378;2023-02-12T01:57:15;99498.97;;;5.53;100.00
5872;BME280;2962;51.312;7.378;2023-02-12T01:59:42;99499.59;;;5.45;100.00
5872;BME280;2962;51.312;7.378;2023-02-12T02:02:08;99487.13;;;5.49;100.00
5872;BME280;2962;51.312;7.378;2023-02-12T02:04:40;99494.44;;;5.48;100.00
5872;BME280;2962;51.312;7.378;2023-02-12T02:07:08;99504.75;;;5.41;100.00
5872;BME280;2962;51.312;7.378;2023-02-12T02:09:35;99503.28;;;5.25;100.00
5872;BME280;2962;51.312;7.378;2023-02-12T02:12:02;99494.09;;;5.26;100.00
5872;BME280;2962;51.312;7.378;2023-02-12T02:14:47;99493.75;;;5.32;100.00
5872;BME280;2962;51.312;7.378;2023-02-12T02:23:19;99498.97;;;5.53;100.00
5872;BME280;2962;51.312;7.378;2023-02-12T02:26:05;99489.88;;;5.44;100.00
5872;BME280;2962;51.312;7.378;2023-02-12T02:31:09;99490.88;;;5.53;100.00
5872;BME280;2962;51.312;7.378;2023-02-12T02:36:24;99487.03;;;5.59;100.00
5872;BME280;2962;51.312;7.378;2023-02-12T02:39:03;99479.50;;;5.56;100.00
5872;BME280;2962;51.312;7.378;2023-02-12T02:41:34;99480.06;;;5.53;100.00
5872;BME280;2962;51.312;7.378;2023-02-12T02:44:06;99475.28;;;5.45;100.00
5872;BME280;2962;51.312;7.378;2023-02-12T02:46:39;99472.25;;;5.51;100.00
5872;BME280;2962;51.312;7.378;2023-02-12T02:49:12;99471.72;;;5.49;100.00
5872;BME280;2962;51.312;7.378;2023-02-12T02:51:42;99476.28;;;5.54;100.00
5872;BME280;2962;51.312;7.378;2023-02-12T02:54:20;99483.28;;;5.55;100.00
5872;BME280;2962;51.312;7.378;2023-02-12T02:56:49;99488.16;;;5.53;100.00
5872;BME280;2962;51.312;7.378;2023-02-12T02:59:29;99482.75;;;5.53;100.00
5872;BME280;2962;51.312;7.378;2023-02-12T03:02:07;99481.16;;;5.52;100.00
5872;BME280;2962;51.312;7.378;2023-02-12T03:04:37;99479.00;;;5.49;100.00
5872;BME280;2962;51.312;7.378;2023-02-12T03:09:43;99477.97;;;5.45;100.00
5872;BME280;2962;51.312;7.378;2023-02-12T03:12:15;99466.06;;;5.46;100.00
5872;BME280;2962;51.312;7.378;2023-02-12T03:14:48;99469.88;;;5.45;100.00
5872;BME280;2962;51.312;7.378;2023-02-12T03:17:20;99473.13;;;5.42;100.00
5872;BME280;2962;51.312;7.378;2023-02-12T03:19:57;99467.28;;;5.29;100.00
5872;BME280;2962;51.312;7.378;2023-02-12T03:22:30;99478.91;;;5.30;100.00
5872;BME280;2962;51.312;7.378;2023-02-12T03:28:09;99475.13;;;5.31;100.00
5872;BME280;2962;51.312;7.378;2023-02-12T03:30:51;99471.94;;;5.24;100.00
5872;BME280;2962;51.312;7.378;2023-02-12T03:36:51;99461.75;;;5.16;100.00
5872;BME280;2962;51.312;7.378;2023-02-12T03:39:27;99471.22;;;5.13;100.00
5872;BME280;2962;51.312;7.378;2023-02-12T03:42:00;99465.06;;;5.07;100.00
5872;BME280;2962;51.312;7.378;2023-02-12T03:47:20;99465.81;;;5.13;100.00
5872;BME280;2962;51.312;7.378;2023-02-12T03:52:34;99459.66;;;5.07;100.00
5872;BME280;2962;51.312;7.378;2023-02-12T03:54:59;99475.03;;;5.07;100.00
5872;BME280;2962;51.312;7.378;2023-02-12T03:57:28;99469.63;;;5.07;100.00
5872;BME280;2962;51.312;7.378;2023-02-12T03:59:57;99467.78;;;5.02;100.00
5872;BME280;2962;51.312;7.378;2023-02-12T04:02:23;99468.59;;;5.03;100.00
5872;BME280;2962;51.312;7.378;2023-02-12T04:04:48;99468.94;;;4.96;100.00
5872;BME280;2962;51.312;7.378;2023-02-12T04:07:14;99460.34;;;4.89;100.00
5872;BME280;2962;51.312;7.378;2023-02-12T04:09:40;99462.47;;;4.92;100.00
5872;BME280;2962;51.312;7.378;2023-02-12T04:12:33;99481.53;;;5.06;100.00
5872;BME280;2962;51.312;7.378;2023-02-12T04:15:05;99472.88;;;5.09;100.00
5872;BME280;2962;51.312;7.378;2023-02-12T04:17:55;99483.50;;;4.95;100.00
5872;BME280;2962;51.312;7.378;2023-02-12T04:20:42;99481.72;;;4.80;100.00
5872;BME280;2962;51.312;7.378;2023-02-12T04:26:23;99496.56;;;4.83;100.00
5872;BME280;2962;51.312;7.378;2023-02-12T04:32:03;99497.81;;;4.96;100.00
5872;BME280;2962;51.312;7.378;2023-02-12T04:34:48;99507.56;;;4.97;100.00
5872;BME280;2962;51.312;7.378;2023-02-12T04:37:17;99505.41;;;4.94;100.00
5872;BME280;2962;51.312;7.378;2023-02-12T04:39:44;99519.91;;;5.03;100.00
5872;BME280;2962;51.312;7.378;2023-02-12T04:42:10;99513.13;;;5.10;100.00
5872;BME280;2962;51.312;7.378;2023-02-12T04:44:41;99513.00;;;5.26;100.00
5872;BME280;2962;51.312;7.378;2023-02-12T04:47:08;99509.50;;;5.25;100.00
5872;BME280;2962;51.312;7.378;2023-02-12T04:49:34;99517.53;;;5.35;100.00
5872;BME280;2962;51.312;7.378;2023-02-12T04:51:59;99519.91;;;5.42;100.00
5872;BME280;2962;51.312;7.378;2023-02-12T04:54:24;99523.38;;;5.48;100.00
5872;BME280;2962;51.312;7.378;2023-02-12T04:56:50;99508.81;;;5.44;100.00
5872;BME280;2962;51.312;7.378;2023-02-12T04:59:16;99523.38;;;5.48;100.00
5872;BME280;2962;51.312;7.378;2023-02-12T05:01:42;99523.06;;;5.49;100.00
5872;BME280;2962;51.312;7.378;2023-02-12T05:04:09;99514.97;;;5.49;100.00
5872;BME280;2962;51.312;7.378;2023-02-12T05:06:37;99516.06;;;5.48;100.00
5872;BME280;2962;51.312;7.378;2023-02-12T05:09:03;99508.56;;;5.40;100.00
5872;BME280;2962;51.312;7.378;2023-02-12T05:11:29;99510.16;;;5.41;100.00
5872;BME280;2962;51.312;7.378;2023-02-12T05:13:54;99519.44;;;5.35;100.00
5872;BME280;2962;51.312;7.378;2023-02-12T05:16:20;99508.38;;;5.31;100.00
5872;BME280;2962;51.312;7.378;2023-02-12T05:18:46;99509.75;;;5.29;100.00
5872;BME280;2962;51.312;7.378;2023-02-12T05:21:12;99509.13;;;5.37;100.00
5872;BME280;2962;51.312;7.378;2023-02-12T05:23:38;99522.69;;;5.32;100.00
5872;BME280;2962;51.312;7.378;2023-02-12T05:26:11;99510.72;;;5.43;100.00
5872;BME280;2962;51.312;7.378;2023-02-12T05:28:37;99522.88;;;5.41;100.00
5872;BME280;2962;51.312;7.378;2023-02-12T05:31:06;99516.72;;;5.35;100.00
5872;BME280;2962;51.312;7.378;2023-02-12T05:33:32;99531.00;;;5.41;100.00
5872;BME280;2962;51.312;7.378;2023-02-12T05:36:09;99523.13;;;5.44;100.00
5872;BME280;2962;51.312;7.378;2023-02-12T05:38:34;99530.94;;;5.46;100.00
5872;BME280;2962;51.312;7.378;2023-02-12T05:41:08;99531.44;;;5.53;100.00
5872;BME280;2962;51.312;7.378;2023-02-12T05:43:34;99524.47;;;5.47;100.00
5872;BME280;2962;51.312;7.378;2023-02-12T05:46:00;99525.03;;;5.44;100.00
5872;BME280;2962;51.312;7.378;2023-02-12T05:48:27;99530.63;;;5.52;100.00
5872;BME280;2962;51.312;7.378;2023-02-12T05:50:52;99532.03;;;5.45;100.00
5872;BME280;2962;51.312;7.378;2023-02-12T05:53:18;99538.06;;;5.36;100.00
5872;BME280;2962;51.312;7.378;2023-02-12T05:55:43;99533.91;;;5.15;100.00
5872;BME280;2962;51.312;7.378;2023-02-12T05:58:09;99536.56;;;5.20;100.00
5872;BME280;2962;51.312;7.378;2023-02-12T06:00:34;99538.63;;;5.33;100.00
5872;BME280;2962;51.312;7.378;2023-02-12T06:02:59;99534.00;;;5.39;100.00
5872;BME280;2962;51.312;7.378;2023-02-12T06:05:24;99538.59;;;5.38;100.00
5872;BME280;2962;51.312;7.378;2023-02-12T06:07:50;99527.53;;;5.35;100.00
5872;BME280;2962;51.312;7.378;2023-02-12T06:10:15;99535.59;;;5.40;100.00
5872;BME280;2962;51.312;7.378;2023-02-12T06:12:40;99536.41;;;5.41;100.00
5872;BME280;2962;51.312;7.378;2023-02-12T06:15:06;99522.16;;;5.30;100.00
5872;BME280;2962;51.312;7.378;2023-02-12T06:17:32;99537.19;;;5.41;100.00
5872;BME280;2962;51.312;7.378;2023-02-12T06:19:58;99540.69;;;5.47;100.00
5872;BME280;2962;51.312;7.378;2023-02-12T06:22:23;99544.75;;;5.44;100.00
5872;BME280;2962;51.312;7.378;2023-02-12T06:24:48;99532.09;;;5.39;100.00
5872;BME280;2962;51.312;7.378;2023-02-12T06:27:13;99535.59;;;5.40;100.00
5872;BME280;2962;51.312;7.378;2023-02-12T06:29:39;99531.56;;;5.37;100.00
5872;BME280;2962;51.312;7.378;2023-02-12T06:32:04;99535.91;;;5.33;100.00
5872;BME280;2962;51.312;7.378;2023-02-12T06:34:32;99542.47;;;5.27;100.00
5872;BME280;2962;51.312;7.378;2023-02-12T06:36:58;99528.41;;;5.25;100.00
5872;BME280;2962;51.312;7.378;2023-02-12T06:39:23;99540.19;;;5.39;100.00
5872;BME280;2962;51.312;7.378;2023-02-12T06:41:48;99541.66;;;5.27;100.00
5872;BME280;2962;51.312;7.378;2023-02-12T06:44:14;99540.25;;;5.34;100.00
5872;BME280;2962;51.312;7.378;2023-02-12T06:46:39;99546.28;;;5.21;100.00
5872;BME280;2962;51.312;7.378;2023-02-12T06:49:04;99536.66;;;5.05;100.00
5872;BME280;2962;51.312;7.378;2023-02-12T06:51:30;99546.81;;;5.23;100.00
5872;BME280;2962;51.312;7.378;2023-02-12T06:53:56;99550.22;;;5.34;100.00
5872;BME280;2962;51.312;7.378;2023-02-12T06:56:23;99561.41;;;5.22;100.00
5872;BME280;2962;51.312;7.378;2023-02-12T06:58:54;99561.69;;;5.21;100.00
5872;BME280;2962;51.312;7.378;2023-02-12T07:01:22;99564.50;;;5.05;100.00
5872;BME280;2962;51.312;7.378;2023-02-12T07:03:50;99568.59;;;4.98;100.00
5872;BME280;2962;51.312;7.378;2023-02-12T07:06:16;99571.34;;;4.93;100.00
5872;BME280;2962;51.312;7.378;2023-02-12T07:08:41;99560.56;;;4.82;100.00
5872;BME280;2962;51.312;7.378;2023-02-12T07:11:07;99574.59;;;4.89;100.00
5872;BME280;2962;51.312;7.378;2023-02-12T07:13:33;99567.28;;;4.90;100.00
5872;BME280;2962;51.312;7.378;2023-02-12T07:16:05;99546.22;;;4.87;100.00
5872;BME280;2962;51.312;7.378;2023-02-12T07:18:32;99585.81;;;5.12;100.00
5872;BME280;2962;51.312;7.378;2023-02-12T07:20:57;99588.50;;;5.07;100.00
5872;BME280;2962;51.312;7.378;2023-02-12T07:23:23;99583.69;;;5.04;100.00
5872;BME280;2962;51.312;7.378;2023-02-12T07:25:55;99588.00;;;5.05;100.00
5872;BME280;2962;51.312;7.378;2023-02-12T07:28:21;99581.25;;;5.02;100.00
5872;BME280;2962;51.312;7.378;2023-02-12T07:30:47;99586.41;;;5.04;100.00
5872;BME280;2962;51.312;7.378;2023-02-12T07:33:12;99597.16;;;5.09;100.00
5872;BME280;2962;51.312;7.378;2023-02-12T07:35:37;99577.19;;;5.05;100.00
5872;BME280;2962;51.312;7.378;2023-02-12T07:38:02;99598.22;;;5.13;100.00
5872;BME280;2962;51.312;7.378;2023-02-12T07:40:28;99598.19;;;5.18;100.00
5872;BME280;2962;51.312;7.378;2023-02-12T07:42:54;99607.91;;;5.19;100.00
5872;BME280;2962;51.312;7.378;2023-02-12T07:45:19;99613.25;;;5.29;100.00
5872;BME280;2962;51.312;7.378;2023-02-12T07:47:45;99592.31;;;5.06;100.00
5872;BME280;2962;51.312;7.378;2023-02-12T07:50:10;99613.03;;;5.21;100.00
5872;BME280;2962;51.312;7.378;2023-02-12T07:52:35;99610.63;;;5.53;100.00
5872;BME280;2962;51.312;7.378;2023-02-12T07:55:00;99603.56;;;5.97;100.00
5872;BME280;2962;51.312;7.378;2023-02-12T07:57:26;99617.94;;;6.21;100.00
5872;BME280;2962;51.312;7.378;2023-02-12T07:59:52;99610.13;;;6.44;100.00
5872;BME280;2962;51.312;7.378;2023-02-12T08:02:17;99604.72;;;6.44;100.00
5872;BME280;2962;51.312;7.378;2023-02-12T08:04:42;99604.47;;;6.40;100.00
5872;BME280;2962;51.312;7.378;2023-02-12T08:07:07;99608.38;;;6.29;100.00
5872;BME280;2962;51.312;7.378;2023-02-12T08:09:33;99600.97;;;6.16;100.00
5872;BME280;2962;51.312;7.378;2023-02-12T08:11:58;99606.16;;;6.07;100.00
5872;BME280;2962;51.312;7.378;2023-02-12T08:14:23;99611.94;;;5.95;100.00
5872;BME280;2962;51.312;7.378;2023-02-12T08:16:50;99601.09;;;6.00;100.00
5872;BME280;2962;51.312;7.378;2023-02-12T08:19:15;99596.56;;;5.91;100.00
5872;BME280;2962;51.312;7.378;2023-02-12T08:21:41;99592.59;;;6.12;100.00
5872;BME280;2962;51.312;7.378;2023-02-12T08:24:06;99606.53;;;6.24;100.00
5872;BME280;2962;51.312;7.378;2023-02-12T08:26:36;99612.31;;;6.42;100.00
5872;BME280;2962;51.312;7.378;2023-02-12T08:29:12;99606.22;;;6.31;100.00
5872;BME280;2962;51.312;7.378;2023-02-12T08:31:48;99615.28;;;6.16;100.00
5872;BME280;2962;51.312;7.378;2023-02-12T08:34:25;99619.34;;;6.43;100.00
5872;BME280;2962;51.312;7.378;2023-02-12T08:36:51;99616.94;;;6.65;100.00
5872;BME280;2962;51.312;7.378;2023-02-12T08:39:21;99614.38;;;6.74;100.00
5872;BME280;2962;51.312;7.378;2023-02-12T08:41:47;99614.78;;;6.86;100.00
5872;BME280;2962;51.312;7.378;2023-02-12T08:44:13;99618.59;;;6.61;100.00
5872;BME280;2962;51.312;7.378;2023-02-12T08:46:43;99611.31;;;6.32;100.00
5872;BME280;2962;51.312;7.378;2023-02-12T08:49:17;99620.91;;;6.73;100.00
5872;BME280;2962;51.312;7.378;2023-02-12T08:51:44;99613.81;;;6.77;100.00
5872;BME280;2962;51.312;7.378;2023-02-12T08:54:12;99611.75;;;6.88;100.00
5872;BME280;2962;51.312;7.378;2023-02-12T08:56:38;99618.16;;;6.97;100.00
5872;BME280;2962;51.312;7.378;2023-02-12T08:59:05;99623.09;;;7.14;100.00
5872;BME280;2962;51.312;7.378;2023-02-12T09:01:33;99612.91;;;7.05;100.00
5872;BME280;2962;51.312;7.378;2023-02-12T09:03:59;99624.41;;;7.16;100.00
5872;BME280;2962;51.312;7.378;2023-02-12T09:06:26;99622.28;;;7.13;100.00
5872;BME280;2962;51.312;7.378;2023-02-12T09:08:52;99627.69;;;7.13;100.00
5872;BME280;2962;51.312;7.378;2023-02-12T09:11:20;99618.47;;;7.14;100.00
5872;BME280;2962;51.312;7.378;2023-02-12T09:13:54;99622.94;;;7.24;100.00
5872;BME280;2962;51.312;7.378;2023-02-12T09:16:19;99618.91;;;7.21;100.00
5872;BME280;2962;51.312;7.378;2023-02-12T09:18:45;99620.03;;;6.77;100.00
5872;BME280;2962;51.312;7.378;2023-02-12T09:21:12;99634.34;;;6.59;100.00
5872;BME280;2962;51.312;7.378;2023-02-12T09:23:39;99636.06;;;6.74;100.00
5872;BME280;2962;51.312;7.378;2023-02-12T09:26:06;99629.53;;;6.75;100.00
5872;BME280;2962;51.312;7.378;2023-02-12T09:28:33;99631.78;;;7.10;100.00
5872;BME280;2962;51.312;7.378;2023-02-12T09:31:03;99632.00;;;7.14;100.00
5872;BME280;2962;51.312;7.378;2023-02-12T09:33:29;99631.44;;;7.17;100.00
5872;BME280;2962;51.312;7.378;2023-02-12T09:35:54;99637.78;;;6.89;100.00
5872;BME280;2962;51.312;7.378;2023-02-12T09:38:19;99629.13;;;6.87;100.00
5872;BME280;2962;51.312;7.378;2023-02-12T09:43:59;99626.16;;;6.88;100.00
5872;BME280;2962;51.312;7.378;2023-02-12T09:46:32;99637.63;;;6.99;100.00
5872;BME280;2962;51.312;7.378;2023-02-12T09:49:08;99640.22;;;7.09;100.00
5872;BME280;2962;51.312;7.378;2023-02-12T09:51:35;99642.38;;;7.31;100.00
5872;BME280;2962;51.312;7.378;2023-02-12T09:54:05;99637.22;;;7.29;100.00
5872;BME280;2962;51.312;7.378;2023-02-12T09:56:33;99635.53;;;7.52;100.00
5872;BME280;2962;51.312;7.378;2023-02-12T09:59:00;99633.78;;;7.62;100.00
5872;BME280;2962;51.312;7.378;2023-02-12T10:01:28;99626.22;;;7.77;100.00
5872;BME280;2962;51.312;7.378;2023-02-12T10:03:54;99627.31;;;7.76;100.00
5872;BME280;2962;51.312;7.378;2023-02-12T10:06:27;99629.63;;;7.83;100.00
5872;BME280;2962;51.312;7.378;2023-02-12T10:09:33;99630.88;;;7.91;100.00
5872;BME280;2962;51.312;7.378;2023-02-12T10:20:18;99637.53;;;7.98;100.00
5872;BME280;2962;51.312;7.378;2023-02-12T10:23:03;99628.28;;;7.99;100.00
5872;BME280;2962;51.312;7.378;2023-02-12T10:25:50;99638.97;;;8.10;100.00
5872;BME280;2962;51.312;7.378;2023-02-12T10:28:37;99635.00;;;8.35;100.00
5872;BME280;2962;51.312;7.378;2023-02-12T10:31:14;99634.75;;;8.03;100.00
5872;BME280;2962;51.312;7.378;2023-02-12T10:33:44;99632.44;;;8.11;100.00
5872;BME280;2962;51.312;7.378;2023-02-12T10:36:38;99631.56;;;8.29;100.00
5872;BME280;2962;51.312;7.378;2023-02-12T10:39:22;99633.84;;;8.08;100.00
5872;BME280;2962;51.312;7.378;2023-02-12T10:42:16;99635.97;;;8.11;100.00
5872;BME280;2962;51.312;7.378;2023-02-12T10:44:43;99632.63;;;8.14;100.00
5872;BME280;2962;51.312;7.378;2023-02-12T10:47:20;99626.94;;;8.29;100.00
5872;BME280;2962;51.312;7.378;2023-02-12T10:49:54;99633.44;;;8.15;100.00
5872;BME280;2962;51.312;7.378;2023-02-12T10:52:44;99626.50;;;8.08;100.00
5872;BME280;2962;51.312;7.378;2023-02-12T10:57:51;99617.66;;;8.17;100.00
5872;BME280;2962;51.312;7.378;2023-02-12T11:00:28;99625.81;;;8.49;100.00
5872;BME280;2962;51.312;7.378;2023-02-12T11:03:01;99622.97;;;8.41;100.00
5872;BME280;2962;51.312;7.378;2023-02-12T11:05:29;99626.59;;;8.64;100.00
5872;BME280;2962;51.312;7.378;2023-02-12T11:07:55;99620.34;;;8.63;100.00
5872;BME280;2962;51.312;7.378;2023-02-12T11:10:39;99626.56;;;8.36;100.00
5872;BME280;2962;51.312;7.378;2023-02-12T11:13:05;99614.75;;;8.13;100.00
5872;BME280;2962;51.312;7.378;2023-02-12T11:15:46;99623.63;;;8.19;100.00
5872;BME280;2962;51.312;7.378;2023-02-12T11:18:25;99619.84;;;8.47;100.00
5872;BME280;2962;51.312;7.378;2023-02-12T11:20:55;99620.97;;;8.74;100.00
5872;BME280;2962;51.312;7.378;2023-02-12T11:31:23;99607.47;;;8.41;100.00
5872;BME280;2962;51.312;7.378;2023-02-12T11:36:39;99596.81;;;8.45;100.00
5872;BME280;2962;51.312;7.378;2023-02-12T11:39:15;99596.38;;;8.38;100.00
5872;BME280;2962;51.312;7.378;2023-02-12T11:41:42;99586.66;;;7.90;100.00
5872;BME280;2962;51.312;7.378;2023-02-12T11:44:10;99590.19;;;7.72;100.00
5872;BME280;2962;51.312;7.378;2023-02-12T11:46:37;99599.03;;;7.64;100.00
5872;BME280;2962;51.312;7.378;2023-02-12T11:49:04;99594.78;;;7.57;100.00
5872;BME280;2962;51.312;7.378;2023-02-12T11:51:33;99592.88;;;7.58;100.00
5872;BME280;2962;51.312;7.378;2023-02-12T11:54:02;99594.59;;;7.68;100.00
5872;BME280;2962;51.312;7.378;2023-02-12T11:56:44;99590.41;;;7.75;100.00
5872;BME280;2962;51.312;7.378;2023-02-12T11:59:34;99590.25;;;7.86;100.00
5872;BME280;2962;51.312;7.378;2023-02-12T12:02:15;99589.72;;;7.83;100.00
5872;BME280;2962;51.312;7.378;2023-02-12T12:04:43;99593.81;;;8.00;100.00
5872;BME280;2962;51.312;7.378;2023-02-12T12:07:15;99597.50;;;7.90;100.00
5872;BME280;2962;51.312;7.378;2023-02-12T12:09:47;99590.25;;;7.86;100.00
5872;BME280;2962;51.312;7.378;2023-02-12T12:12:31;99591.91;;;8.00;100.00
5872;BME280;2962;51.312;7.378;2023-02-12T12:15:05;99573.22;;;8.13;100.00
5872;BME280;2962;51.312;7.378;2023-02-12T12:18:20;99573.22;;;8.13;100.00
5872;BME280;2962;51.312;7.378;2023-02-12T12:21:23;99575.41;;;8.11;100.00
5872;BME280;2962;51.312;7.378;2023-02-12T12:23:57;99577.44;;;8.05;100.00
5872;BME280;2962;51.312;7.378;2023-02-12T12:26:30;99567.84;;;7.94;100.00
5872;BME280;2962;51.312;7.378;2023-02-12T12:29:21;99571.47;;;8.03;100.00
5872;BME280;2962;51.312;7.378;2023-02-12T12:31:52;99571.41;;;8.08;100.00
5872;BME280;2962;51.312;7.378;2023-02-12T12:34:24;99568.16;;;8.06;100.00
5872;BME280;2962;51.312;7.378;2023-02-12T12:39:57;99547.25;;;8.06;100.00
5872;BME280;2962;51.312;7.378;2023-02-12T12:48:21;99550.09;;;8.15;100.00
5872;BME280;2962;51.312;7.378;2023-02-12T12:51:21;99538.81;;;8.22;100.00
5872;BME280;2962;51.312;7.378;2023-02-12T13:05:39;99535.00;;;8.09;100.00
5872;BME280;2962;51.312;7.378;2023-02-12T13:08:23;99530.28;;;8.01;100.00
5872;BME280;2962;51.312;7.378;2023-02-12T13:11:05;99527.25;;;8.02;100.00
5872;BME280;2962;51.312;7.378;2023-02-12T13:13:45;99519.81;;;8.08;100.00
5872;BME280;2962;51.312;7.378;2023-02-12T13:16:22;99524.34;;;8.13;100.00
5872;BME280;2962;51.312;7.378;2023-02-12T13:19:14;99523.53;;;8.12;100.00
5872;BME280;2962;51.312;7.378;2023-02-12T13:21:51;99525.53;;;8.06;100.00
5872;BME280;2962;51.312;7.378;2023-02-12T13:26:58;99524.53;;;8.02;100.00
5872;BME280;2962;51.312;7.378;2023-02-12T13:31:57;99514.16;;;7.91;100.00
5872;BME280;2962;51.312;7.378;2023-02-12T13:34:25;99512.38;;;8.00;100.00
5872;BME280;2962;51.312;7.378;2023-02-12T13:36:53;99509.84;;;7.90;100.00
5872;BME280;2962;51.312;7.378;2023-02-12T13:39:35;99508.66;;;7.96;100.00
5872;BME280;2962;51.312;7.378;2023-02-12T13:45:18;99514.38;;;7.80;100.00
5872;BME280;2962;51.312;7.378;2023-02-12T13:51:38;99510.03;;;7.79;100.00
5872;BME280;2962;51.312;7.378;2023-02-12T13:56:58;99506.44;;;7.84;100.00
5872;BME280;2962;51.312;7.378;2023-02-12T14:02:03;99504.69;;;7.74;100.00
5872;BME280;2962;51.312;7.378;2023-02-12T14:04:31;99502.56;;;7.71;100.00
5872;BME280;2962;51.312;7.378;2023-02-12T14:09:31;99509.81;;;7.62;100.00
5872;BME280;2962;51.312;7.378;2023-02-12T14:12:00;99510.09;;;7.61;100.00
5872;BME280;2962;51.312;7.378;2023-02-12T14:14:35;99507.78;;;7.68;100.00
5872;BME280;2962;51.312;7.378;2023-02-12T14:20:32;99503.38;;;7.72;100.00
5872;BME280;2962;51.312;7.378;2023-02-12T14:22:59;99510.72;;;7.71;100.00
5872;BME280;2962;51.312;7.378;2023-02-12T14:25:31;99493.31;;;7.72;100.00
5872;BME280;2962;51.312;7.378;2023-02-12T14:28:22;99508.13;;;7.80;100.00
5872;BME280;2962;51.312;7.378;2023-02-12T14:33:43;99515.88;;;7.73;100.00
5872;BME280;2962;51.312;7.378;2023-02-12T14:41:36;99515.03;;;7.72;100.00
5872;BME280;2962;51.312;7.378;2023-02-12T14:46:52;99514.84;;;7.69;100.00
5872;BME280;2962;51.312;7.378;2023-02-12T14:49:26;99506.06;;;7.58;100.00
5872;BME280;2962;51.312;7.378;2023-02-12T14:54:50;99514.28;;;7.53;100.00
5872;BME280;2962;51.312;7.378;2023-02-12T14:57:34;99508.03;;;7.39;100.00
5872;BME280;2962;51.312;7.378;2023-02-12T15:00:20;99512.78;;;7.47;100.00
5872;BME280;2962;51.312;7.378;2023-02-12T15:02:53;99506.03;;;7.44;100.00
5872;BME280;2962;51.312;7.378;2023-02-12T15:08:05;99512.34;;;7.40;100.00
5872;BME280;2962;51.312;7.378;2023-02-12T15:10:54;99510.75;;;7.39;100.00
5872;BME280;2962;51.312;7.378;2023-02-12T15:16:07;99503.47;;;7.34;100.00
5872;BME280;2962;51.312;7.378;2023-02-12T15:21:30;99498.94;;;7.29;100.00
5872;BME280;2962;51.312;7.378;2023-02-12T15:26:27;99487.75;;;7.17;100.00
5872;BME280;2962;51.312;7.378;2023-02-12T15:28:53;99486.41;;;7.33;100.00
5872;BME280;2962;51.312;7.378;2023-02-12T15:31:21;99487.75;;;7.17;100.00
5872;BME280;2962;51.312;7.378;2023-02-12T15:33:51;99483.00;;;7.09;100.00
5872;BME280;2962;51.312;7.378;2023-02-12T15:36:21;99486.03;;;7.07;100.00
5872;BME280;2962;51.312;7.378;2023-02-12T15:38:51;99482.31;;;7.03;100.00
5872;BME280;2962;51.312;7.378;2023-02-12T15:44:00;99475.84;;;6.99;100.00
5872;BME280;2962;51.312;7.378;2023-02-12T15:46:26;99484.19;;;7.03;100.00